sensor_id;sensor_type;location;lat;lon;timestamp;P1;durP1;ratioP1;P2;durP2;ratioP2
20621;SDS011;10470;42.670;23.354;2022-12-18T00:02:33;7.97;;;5.80;;
20621;SDS011;10470;42.670;23.354;2022-12-18T00:05:19;7.83;;;5.90;;
20621;SDS011;10470;42.670;23.354;2022-12-18T00:08:04;7.97;;;6.30;;
20621;SDS011;10470;42.670;23.354;2022-12-18T00:10:50;9.97;;;6.67;;
20621;SDS011;10470;42.670;23.354;2022-12-18T00:13:35;9.47;;;6.80;;
20621;SDS011;10470;42.670;23.354;2022-12-18T00:16:11;9.20;;;6.37;;
20621;SDS011;10470;42.670;23.354;2022-12-18T00:18:59;10.00;;;6.23;;
20621;SDS011;10470;42.670;23.354;2022-12-18T00:21:45;10.43;;;7.10;;
20621;SDS011;10470;42.670;23.354;2022-12-18T00:24:30;8.53;;;5.97;;
20621;SDS011;10470;42.670;23.354;2022-12-18T00:27:15;8.83;;;6.00;;
20621;SDS011;10470;42.670;23.354;2022-12-18T00:30:01;9.00;;;6.50;;
20621;SDS011;10470;42.670;23.354;2022-12-18T00:32:46;12.07;;;7.17;;
20621;SDS011;10470;42.670;23.354;2022-12-18T00:35:32;8.90;;;6.43;;
20621;SDS011;10470;42.670;23.354;2022-12-18T00:38:17;10.47;;;7.13;;
20621;SDS011;10470;42.670;23.354;2022-12-18T00:41:03;9.10;;;6.07;;
20621;SDS011;10470;42.670;23.354;2022-12-18T00:43:49;9.43;;;6.10;;
20621;SDS011;10470;42.670;23.354;2022-12-18T00:46:34;10.27;;;6.70;;
20621;SDS011;10470;42.670;23.354;2022-12-18T00:49:20;9.50;;;6.07;;
20621;SDS011;10470;42.670;23.354;2022-12-18T00:52:05;7.90;;;5.97;;
20621;SDS011;10470;42.670;23.354;2022-12-18T00:54:51;7.47;;;5.50;;
20621;SDS011;10470;42.670;23.354;2022-12-18T00:57:36;7.13;;;5.60;;
20621;SDS011;10470;42.670;23.354;2022-12-18T01:00:22;8.13;;;5.97;;
20621;SDS011;10470;42.670;23.354;2022-12-18T01:03:08;8.97;;;6.60;;
20621;SDS011;10470;42.670;23.354;2022-12-18T01:05:57;9.63;;;6.17;;
20621;SDS011;10470;42.670;23.354;2022-12-18T01:08:43;9.43;;;6.10;;
20621;SDS011;10470;42.670;23.354;2022-12-18T01:11:29;8.27;;;5.23;;
20621;SDS011;10470;42.670;23.354;2022-12-18T01:14:14;7.00;;;4.73;;
20621;SDS011;10470;42.670;23.354;2022-12-18T01:17:00;9.47;;;6.50;;
20621;SDS011;10470;42.670;23.354;2022-12-18T01:19:47;9.27;;;6.80;;
20621;SDS011;10470;42.670;23.354;2022-12-18T01:22:33;9.20;;;6.37;;
20621;SDS011;10470;42.670;23.354;2022-12-18T01:25:18;11.87;;;7.03;;
20621;SDS011;10470;42.670;23.354;2022-12-18T01:28:04;11.07;;;7.50;;
20621;SDS011;10470;42.670;23.354;2022-12-18T01:30:49;10.90;;;6.93;;
20621;SDS011;10470;42.670;23.354;2022-12-18T01:33:35;11.27;;;7.47;;
20621;SDS011;10470;42.670;23.354;2022-12-18T01:36:24;11.23;;;7.70;;
20621;SDS011;10470;42.670;23.354;2022-12-18T01:39:13;10.47;;;7.50;;
20621;SDS011;10470;42.670;23.354;2022-12-18T01:41:59;12.67;;;7.50;;
20621;SDS011;10470;42.670;23.354;2022-12-18T01:47:50;11.37;;;7.60;;
20621;SDS011;10470;42.670;23.354;2022-12-18T01:50:38;11.47;;;7.30;;
20621;SDS011;10470;42.670;23.354;2022-12-18T01:53:26;11.80;;;7.80;;
20621;SDS011;10470;42.670;23.354;2022-12-18T01:56:13;11.23;;;7.53;;
20621;SDS011;10470;42.670;23.354;2022-12-18T01:59:04;8.60;;;5.97;;
20621;SDS011;10470;42.670;23.354;2022-12-18T02:01:54;11.03;;;7.17;;
20621;SDS011;10470;42.670;23.354;2022-12-18T02:04:39;8.57;;;5.03;;
20621;SDS011;10470;42.670;23.354;2022-12-18T02:10:43;9.53;;;6.90;;
20621;SDS011;10470;42.670;23.354;2022-12-18T02:13:45;9.73;;;7.03;;
20621;SDS011;10470;42.670;23.354;2022-12-18T02:29:13;10.90;;;6.40;;
20621;SDS011;10470;42.670;23.354;2022-12-18T02:32:03;11.57;;;6.90;;
20621;SDS011;10470;42.670;23.354;2022-12-18T02:34:52;9.50;;;5.70;;
20621;SDS011;10470;42.670;23.354;2022-12-18T02:37:42;12.03;;;7.47;;
20621;SDS011;10470;42.670;23.354;2022-12-18T02:40:30;10.70;;;7.60;;
20621;SDS011;10470;42.670;23.354;2022-12-18T02:43:16;10.67;;;7.40;;
20621;SDS011;10470;42.670;23.354;2022-12-18T02:46:20;10.23;;;7.13;;
20621;SDS011;10470;42.670;23.354;2022-12-18T02:58:58;9.33;;;6.10;;
20621;SDS011;10470;42.670;23.354;2022-12-18T03:04:57;11.93;;;6.93;;
20621;SDS011;10470;42.670;23.354;2022-12-18T03:11:01;11.13;;;7.63;;
20621;SDS011;10470;42.670;23.354;2022-12-18T03:13:50;9.57;;;6.37;;
20621;SDS011;10470;42.670;23.354;2022-12-18T03:16:41;10.27;;;6.47;;
20621;SDS011;10470;42.670;23.354;2022-12-18T03:19:29;9.83;;;6.87;;
20621;SDS011;10470;42.670;23.354;2022-12-18T03:22:17;11.13;;;6.00;;
20621;SDS011;10470;42.670;23.354;2022-12-18T03:25:04;10.10;;;6.53;;
20621;SDS011;10470;42.670;23.354;2022-12-18T03:27:54;14.17;;;6.83;;
20621;SDS011;10470;42.670;23.354;2022-12-18T03:30:43;9.80;;;6.70;;
20621;SDS011;10470;42.670;23.354;2022-12-18T03:36:44;9.07;;;6.13;;
20621;SDS011;10470;42.670;23.354;2022-12-18T03:39:30;8.80;;;5.77;;
20621;SDS011;10470;42.670;23.354;2022-12-18T03:45:24;13.40;;;7.00;;
20621;SDS011;10470;42.670;23.354;2022-12-18T03:48:17;10.73;;;7.13;;
20621;SDS011;10470;42.670;23.354;2022-12-18T03:51:12;9.50;;;6.40;;
20621;SDS011;10470;42.670;23.354;2022-12-18T03:54:03;10.63;;;7.07;;
20621;SDS011;10470;42.670;23.354;2022-12-18T03:56:58;11.00;;;7.60;;
20621;SDS011;10470;42.670;23.354;2022-12-18T03:59:35;8.70;;;6.00;;
20621;SDS011;10470;42.670;23.354;2022-12-18T04:02:23;10.17;;;6.47;;
20621;SDS011;10470;42.670;23.354;2022-12-18T04:05:10;11.40;;;6.93;;
20621;SDS011;10470;42.670;23.354;2022-12-18T04:07:57;12.07;;;7.03;;
20621;SDS011;10470;42.670;23.354;2022-12-18T04:10:43;11.20;;;7.30;;
20621;SDS011;10470;42.670;23.354;2022-12-18T04:13:29;11.13;;;6.63;;
20621;SDS011;10470;42.670;23.354;2022-12-18T04:16:17;10.03;;;6.33;;
20621;SDS011;10470;42.670;23.354;2022-12-18T04:19:03;12.63;;;6.77;;
20621;SDS011;10470;42.670;23.354;2022-12-18T04:21:49;9.93;;;6.80;;
20621;SDS011;10470;42.670;23.354;2022-12-18T04:24:34;10.97;;;7.57;;
20621;SDS011;10470;42.670;23.354;2022-12-18T04:27:20;11.20;;;6.40;;
20621;SDS011;10470;42.670;23.354;2022-12-18T04:30:05;11.07;;;7.20;;
20621;SDS011;10470;42.670;23.354;2022-12-18T04:32:51;12.93;;;8.20;;
20621;SDS011;10470;42.670;23.354;2022-12-18T04:35:37;12.97;;;8.17;;
20621;SDS011;10470;42.670;23.354;2022-12-18T04:38:22;12.00;;;7.13;;
20621;SDS011;10470;42.670;23.354;2022-12-18T04:41:08;10.83;;;6.87;;
20621;SDS011;10470;42.670;23.354;2022-12-18T04:43:54;13.30;;;8.30;;
20621;SDS011;10470;42.670;23.354;2022-12-18T04:46:24;14.33;;;7.67;;
20621;SDS011;10470;42.670;23.354;2022-12-18T04:49:09;12.60;;;7.63;;
20621;SDS011;10470;42.670;23.354;2022-12-18T04:51:58;15.50;;;8.73;;
20621;SDS011;10470;42.670;23.354;2022-12-18T04:54:43;13.93;;;7.73;;
20621;SDS011;10470;42.670;23.354;2022-12-18T04:57:29;12.73;;;8.17;;
20621;SDS011;10470;42.670;23.354;2022-12-18T05:00:14;13.80;;;8.17;;
20621;SDS011;10470;42.670;23.354;2022-12-18T05:03:01;14.20;;;8.53;;
20621;SDS011;10470;42.670;23.354;2022-12-18T05:05:50;14.47;;;8.47;;
20621;SDS011;10470;42.670;23.354;2022-12-18T05:08:36;17.70;;;9.90;;
20621;SDS011;10470;42.670;23.354;2022-12-18T05:11:21;18.40;;;8.67;;
20621;SDS011;10470;42.670;23.354;2022-12-18T05:14:07;17.20;;;10.17;;
20621;SDS011;10470;42.670;23.354;2022-12-18T05:16:52;15.43;;;9.17;;
20621;SDS011;10470;42.670;23.354;2022-12-18T05:19:38;18.33;;;10.27;;
20621;SDS011;10470;42.670;23.354;2022-12-18T05:22:23;18.30;;;10.57;;
20621;SDS011;10470;42.670;23.354;2022-12-18T05:25:09;18.03;;;10.23;;
20621;SDS011;10470;42.670;23.354;2022-12-18T05:27:55;14.87;;;8.30;;
20621;SDS011;10470;42.670;23.354;2022-12-18T05:30:40;16.57;;;9.77;;
20621;SDS011;10470;42.670;23.354;2022-12-18T05:33:27;15.27;;;7.60;;
20621;SDS011;10470;42.670;23.354;2022-12-18T05:36:15;16.00;;;10.03;;
20621;SDS011;10470;42.670;23.354;2022-12-18T05:39:00;18.53;;;9.60;;
20621;SDS011;10470;42.670;23.354;2022-12-18T05:41:46;15.03;;;8.17;;
20621;SDS011;10470;42.670;23.354;2022-12-18T05:44:31;20.20;;;10.57;;
20621;SDS011;10470;42.670;23.354;2022-12-18T05:47:16;13.57;;;7.87;;
20621;SDS011;10470;42.670;23.354;2022-12-18T05:50:02;13.53;;;8.20;;
20621;SDS011;10470;42.670;23.354;2022-12-18T05:52:48;18.27;;;10.67;;
20621;SDS011;10470;42.670;23.354;2022-12-18T05:55:34;18.80;;;10.57;;
20621;SDS011;10470;42.670;23.354;2022-12-18T05:58:21;15.90;;;8.30;;
20621;SDS011;10470;42.670;23.354;2022-12-18T06:01:14;17.53;;;9.87;;
20621;SDS011;10470;42.670;23.354;2022-12-18T06:04:04;12.33;;;7.53;;
20621;SDS011;10470;42.670;23.354;2022-12-18T06:06:49;15.57;;;8.50;;
20621;SDS011;10470;42.670;23.354;2022-12-18T06:09:35;17.03;;;9.33;;
20621;SDS011;10470;42.670;23.354;2022-12-18T06:12:20;21.53;;;9.70;;
20621;SDS011;10470;42.670;23.354;2022-12-18T06:15:04;21.43;;;10.80;;
20621;SDS011;10470;42.670;23.354;2022-12-18T06:17:50;20.37;;;11.00;;
20621;SDS011;10470;42.670;23.354;2022-12-18T06:20:36;25.37;;;11.07;;
20621;SDS011;10470;42.670;23.354;2022-12-18T06:23:24;17.17;;;9.63;;
20621;SDS011;10470;42.670;23.354;2022-12-18T06:26:10;17.50;;;10.13;;
20621;SDS011;10470;42.670;23.354;2022-12-18T06:28:57;19.97;;;11.47;;
20621;SDS011;10470;42.670;23.354;2022-12-18T06:31:42;17.77;;;10.20;;
20621;SDS011;10470;42.670;23.354;2022-12-18T06:34:28;18.83;;;10.20;;
20621;SDS011;10470;42.670;23.354;2022-12-18T06:37:13;20.27;;;11.33;;
20621;SDS011;10470;42.670;23.354;2022-12-18T06:39:59;21.07;;;11.43;;
20621;SDS011;10470;42.670;23.354;2022-12-18T06:42:46;22.17;;;11.80;;
20621;SDS011;10470;42.670;23.354;2022-12-18T06:45:31;19.97;;;10.40;;
20621;SDS011;10470;42.670;23.354;2022-12-18T06:48:19;21.03;;;12.13;;
20621;SDS011;10470;42.670;23.354;2022-12-18T06:51:05;15.70;;;8.13;;
20621;SDS011;10470;42.670;23.354;2022-12-18T06:53:52;19.63;;;11.53;;
20621;SDS011;10470;42.670;23.354;2022-12-18T06:56:37;21.80;;;11.80;;
20621;SDS011;10470;42.670;23.354;2022-12-18T06:59:23;20.63;;;11.17;;
20621;SDS011;10470;42.670;23.354;2022-12-18T07:02:10;20.70;;;11.67;;
20621;SDS011;10470;42.670;23.354;2022-12-18T07:04:57;15.57;;;9.83;;
20621;SDS011;10470;42.670;23.354;2022-12-18T07:07:43;20.03;;;11.37;;
20621;SDS011;10470;42.670;23.354;2022-12-18T07:10:29;21.43;;;12.17;;
20621;SDS011;10470;42.670;23.354;2022-12-18T07:13:13;23.27;;;13.57;;
20621;SDS011;10470;42.670;23.354;2022-12-18T07:16:06;20.13;;;12.10;;
20621;SDS011;10470;42.670;23.354;2022-12-18T07:18:54;19.63;;;11.33;;
20621;SDS011;10470;42.670;23.354;2022-12-18T07:21:40;22.07;;;12.80;;
20621;SDS011;10470;42.670;23.354;2022-12-18T07:24:25;21.33;;;11.30;;
20621;SDS011;10470;42.670;23.354;2022-12-18T07:27:10;20.90;;;11.47;;
20621;SDS011;10470;42.670;23.354;2022-12-18T07:29:56;19.13;;;11.70;;
20621;SDS011;10470;42.670;23.354;2022-12-18T07:32:42;23.87;;;12.33;;
20621;SDS011;10470;42.670;23.354;2022-12-18T07:35:27;23.63;;;11.90;;
20621;SDS011;10470;42.670;23.354;2022-12-18T07:38:13;24.67;;;11.93;;
20621;SDS011;10470;42.670;23.354;2022-12-18T07:41:05;23.17;;;12.63;;
20621;SDS011;10470;42.670;23.354;2022-12-18T07:43:52;24.47;;;13.17;;
20621;SDS011;10470;42.670;23.354;2022-12-18T07:46:38;27.77;;;14.43;;
20621;SDS011;10470;42.670;23.354;2022-12-18T07:49:16;24.70;;;13.53;;
20621;SDS011;10470;42.670;23.354;2022-12-18T07:52:02;18.83;;;11.27;;
20621;SDS011;10470;42.670;23.354;2022-12-18T07:54:47;22.47;;;13.20;;
20621;SDS011;10470;42.670;23.354;2022-12-18T07:57:34;27.13;;;14.03;;
20621;SDS011;10470;42.670;23.354;2022-12-18T08:00:20;27.33;;;13.60;;
20621;SDS011;10470;42.670;23.354;2022-12-18T08:03:05;22.43;;;12.27;;
20621;SDS011;10470;42.670;23.354;2022-12-18T08:05:51;25.40;;;13.53;;
20621;SDS011;10470;42.670;23.354;2022-12-18T08:08:37;27.10;;;14.07;;
20621;SDS011;10470;42.670;23.354;2022-12-18T08:11:23;27.00;;;14.60;;
20621;SDS011;10470;42.670;23.354;2022-12-18T08:14:10;28.23;;;14.67;;
20621;SDS011;10470;42.670;23.354;2022-12-18T08:16:56;30.30;;;15.17;;
20621;SDS011;10470;42.670;23.354;2022-12-18T08:19:41;28.47;;;16.30;;
20621;SDS011;10470;42.670;23.354;2022-12-18T08:22:27;22.03;;;11.27;;
20621;SDS011;10470;42.670;23.354;2022-12-18T08:25:12;29.70;;;14.87;;
20621;SDS011;10470;42.670;23.354;2022-12-18T08:27:58;27.27;;;14.83;;
20621;SDS011;10470;42.670;23.354;2022-12-18T08:30:44;25.17;;;14.00;;
20621;SDS011;10470;42.670;23.354;2022-12-18T08:33:29;31.53;;;13.53;;
20621;SDS011;10470;42.670;23.354;2022-12-18T08:36:15;26.77;;;14.33;;
20621;SDS011;10470;42.670;23.354;2022-12-18T08:39:00;28.57;;;14.67;;
20621;SDS011;10470;42.670;23.354;2022-12-18T08:41:46;26.93;;;15.63;;
20621;SDS011;10470;42.670;23.354;2022-12-18T08:44:51;27.77;;;14.70;;
20621;SDS011;10470;42.670;23.354;2022-12-18T08:47:37;26.07;;;14.77;;
20621;SDS011;10470;42.670;23.354;2022-12-18T08:50:22;25.23;;;13.50;;
20621;SDS011;10470;42.670;23.354;2022-12-18T08:53:08;33.07;;;15.23;;
20621;SDS011;10470;42.670;23.354;2022-12-18T08:55:54;24.63;;;13.47;;
20621;SDS011;10470;42.670;23.354;2022-12-18T08:58:41;31.50;;;16.37;;
20621;SDS011;10470;42.670;23.354;2022-12-18T09:01:27;29.20;;;14.07;;
20621;SDS011;10470;42.670;23.354;2022-12-18T09:04:13;28.63;;;14.17;;
20621;SDS011;10470;42.670;23.354;2022-12-18T09:06:55;26.70;;;13.97;;
20621;SDS011;10470;42.670;23.354;2022-12-18T09:09:41;17.17;;;7.90;;
20621;SDS011;10470;42.670;23.354;2022-12-18T09:12:26;30.47;;;14.17;;
20621;SDS011;10470;42.670;23.354;2022-12-18T09:15:12;27.03;;;13.97;;
20621;SDS011;10470;42.670;23.354;2022-12-18T09:17:58;26.03;;;13.93;;
20621;SDS011;10470;42.670;23.354;2022-12-18T09:20:43;29.77;;;13.97;;
20621;SDS011;10470;42.670;23.354;2022-12-18T09:23:29;22.93;;;11.97;;
20621;SDS011;10470;42.670;23.354;2022-12-18T09:26:14;23.03;;;12.67;;
20621;SDS011;10470;42.670;23.354;2022-12-18T09:29:00;22.03;;;12.13;;
20621;SDS011;10470;42.670;23.354;2022-12-18T09:31:47;22.87;;;12.00;;
20621;SDS011;10470;42.670;23.354;2022-12-18T09:34:34;25.03;;;13.13;;
20621;SDS011;10470;42.670;23.354;2022-12-18T09:37:20;22.37;;;12.73;;
20621;SDS011;10470;42.670;23.354;2022-12-18T09:40:05;23.67;;;13.37;;
20621;SDS011;10470;42.670;23.354;2022-12-18T09:42:53;22.13;;;12.07;;
20621;SDS011;10470;42.670;23.354;2022-12-18T09:45:42;24.80;;;12.67;;
20621;SDS011;10470;42.670;23.354;2022-12-18T09:48:32;24.20;;;13.10;;
20621;SDS011;10470;42.670;23.354;2022-12-18T09:51:23;17.87;;;9.87;;
20621;SDS011;10470;42.670;23.354;2022-12-18T09:54:21;17.50;;;10.00;;
20621;SDS011;10470;42.670;23.354;2022-12-18T09:57:14;24.83;;;13.13;;
20621;SDS011;10470;42.670;23.354;2022-12-18T10:00:15;23.03;;;8.50;;
20621;SDS011;10470;42.670;23.354;2022-12-18T10:03:03;23.30;;;12.53;;
20621;SDS011;10470;42.670;23.354;2022-12-18T10:08:51;22.63;;;11.90;;
20621;SDS011;10470;42.670;23.354;2022-12-18T10:11:58;19.17;;;10.83;;
20621;SDS011;10470;42.670;23.354;2022-12-18T10:21:11;23.40;;;11.43;;
20621;SDS011;10470;42.670;23.354;2022-12-18T10:27:09;26.40;;;13.17;;
20621;SDS011;10470;42.670;23.354;2022-12-18T10:30:00;26.53;;;13.83;;
20621;SDS011;10470;42.670;23.354;2022-12-18T10:32:49;24.80;;;12.77;;
20621;SDS011;10470;42.670;23.354;2022-12-18T10:35:35;24.53;;;12.57;;
20621;SDS011;10470;42.670;23.354;2022-12-18T10:38:22;23.70;;;12.23;;
20621;SDS011;10470;42.670;23.354;2022-12-18T10:47:06;28.93;;;14.17;;
20621;SDS011;10470;42.670;23.354;2022-12-18T10:49:51;24.13;;;13.17;;
20621;SDS011;10470;42.670;23.354;2022-12-18T10:52:40;23.90;;;12.27;;
20621;SDS011;10470;42.670;23.354;2022-12-18T10:55:27;22.97;;;12.00;;
20621;SDS011;10470;42.670;23.354;2022-12-18T11:01:17;25.73;;;12.43;;
20621;SDS011;10470;42.670;23.354;2022-12-18T11:04:07;27.80;;;13.97;;
20621;SDS011;10470;42.670;23.354;2022-12-18T11:07:01;25.53;;;14.30;;
20621;SDS011;10470;42.670;23.354;2022-12-18T11:09:59;21.50;;;12.03;;
20621;SDS011;10470;42.670;23.354;2022-12-18T11:12:46;23.13;;;12.10;;
20621;SDS011;10470;42.670;23.354;2022-12-18T11:15:32;21.07;;;12.20;;
20621;SDS011;10470;42.670;23.354;2022-12-18T11:21:20;23.90;;;12.90;;
20621;SDS011;10470;42.670;23.354;2022-12-18T11:24:07;18.73;;;9.23;;
20621;SDS011;10470;42.670;23.354;2022-12-18T11:27:16;21.77;;;11.97;;
20621;SDS011;10470;42.670;23.354;2022-12-18T11:33:28;24.80;;;12.63;;
20621;SDS011;10470;42.670;23.354;2022-12-18T11:36:14;23.77;;;11.87;;
20621;SDS011;10470;42.670;23.354;2022-12-18T11:39:01;21.10;;;11.47;;
20621;SDS011;10470;42.670;23.354;2022-12-18T11:41:56;21.17;;;11.63;;
20621;SDS011;10470;42.670;23.354;2022-12-18T11:50:41;21.77;;;11.90;;
20621;SDS011;10470;42.670;23.354;2022-12-18T11:53:34;25.30;;;14.23;;
20621;SDS011;10470;42.670;23.354;2022-12-18T11:56:21;24.73;;;12.30;;
20621;SDS011;10470;42.670;23.354;2022-12-18T11:59:27;24.93;;;13.83;;
20621;SDS011;10470;42.670;23.354;2022-12-18T12:15:04;22.03;;;12.43;;
20621;SDS011;10470;42.670;23.354;2022-12-18T12:36:38;22.30;;;12.63;;
20621;SDS011;10470;42.670;23.354;2022-12-18T12:39:27;22.00;;;12.17;;
20621;SDS011;10470;42.670;23.354;2022-12-18T12:42:26;22.90;;;12.17;;
20621;SDS011;10470;42.670;23.354;2022-12-18T12:49:01;21.10;;;11.20;;
20621;SDS011;10470;42.670;23.354;2022-12-18T12:51:58;20.10;;;10.73;;
20621;SDS011;10470;42.670;23.354;2022-12-18T12:54:48;22.53;;;11.60;;
20621;SDS011;10470;42.670;23.354;2022-12-18T12:57:40;27.33;;;14.90;;
20621;SDS011;10470;42.670;23.354;2022-12-18T13:00:31;23.33;;;10.67;;
20621;SDS011;10470;42.670;23.354;2022-12-18T13:06:47;24.70;;;11.80;;
20621;SDS011;10470;42.670;23.354;2022-12-18T13:13:11;23.23;;;12.70;;
20621;SDS011;10470;42.670;23.354;2022-12-18T13:16:04;25.83;;;14.60;;
20621;SDS011;10470;42.670;23.354;2022-12-18T13:18:55;26.47;;;14.50;;
20621;SDS011;10470;42.670;23.354;2022-12-18T13:21:44;25.00;;;12.97;;
20621;SDS011;10470;42.670;23.354;2022-12-18T13:24:39;24.37;;;11.80;;
20621;SDS011;10470;42.670;23.354;2022-12-18T13:36:04;24.53;;;13.13;;
20621;SDS011;10470;42.670;23.354;2022-12-18T13:44:39;26.43;;;13.67;;
20621;SDS011;10470;42.670;23.354;2022-12-18T13:47:33;22.47;;;12.07;;
20621;SDS011;10470;42.670;23.354;2022-12-18T13:50:23;25.70;;;13.30;;
20621;SDS011;10470;42.670;23.354;2022-12-18T13:53:21;30.00;;;14.77;;
20621;SDS011;10470;42.670;23.354;2022-12-18T13:56:17;23.53;;;13.20;;
20621;SDS011;10470;42.670;23.354;2022-12-18T14:02:15;28.67;;;15.17;;
20621;SDS011;10470;42.670;23.354;2022-12-18T14:05:03;28.30;;;14.37;;
20621;SDS011;10470;42.670;23.354;2022-12-18T14:07:48;26.30;;;13.80;;
20621;SDS011;10470;42.670;23.354;2022-12-18T14:10:34;27.07;;;14.27;;
20621;SDS011;10470;42.670;23.354;2022-12-18T14:13:30;25.63;;;14.10;;
20621;SDS011;10470;42.670;23.354;2022-12-18T14:16:19;24.40;;;13.63;;
20621;SDS011;10470;42.670;23.354;2022-12-18T14:19:05;21.37;;;12.60;;
20621;SDS011;10470;42.670;23.354;2022-12-18T14:21:57;25.70;;;12.10;;
20621;SDS011;10470;42.670;23.354;2022-12-18T14:24:42;23.03;;;13.20;;
20621;SDS011;10470;42.670;23.354;2022-12-18T14:27:28;23.97;;;13.13;;
20621;SDS011;10470;42.670;23.354;2022-12-18T14:30:24;24.70;;;13.30;;
20621;SDS011;10470;42.670;23.354;2022-12-18T14:33:19;27.67;;;13.10;;
20621;SDS011;10470;42.670;23.354;2022-12-18T14:36:14;23.90;;;13.47;;
20621;SDS011;10470;42.670;23.354;2022-12-18T14:39:02;23.40;;;12.80;;
20621;SDS011;10470;42.670;23.354;2022-12-18T14:41:50;28.53;;;14.63;;
20621;SDS011;10470;42.670;23.354;2022-12-18T14:44:36;23.03;;;13.43;;
20621;SDS011;10470;42.670;23.354;2022-12-18T14:47:22;25.63;;;13.77;;
20621;SDS011;10470;42.670;23.354;2022-12-18T14:50:12;24.67;;;13.03;;
20621;SDS011;10470;42.670;23.354;2022-12-18T14:52:58;21.23;;;11.80;;
20621;SDS011;10470;42.670;23.354;2022-12-18T14:55:47;22.10;;;11.70;;
20621;SDS011;10470;42.670;23.354;2022-12-18T14:58:33;23.03;;;12.33;;
20621;SDS011;10470;42.670;23.354;2022-12-18T15:01:26;22.17;;;11.37;;
20621;SDS011;10470;42.670;23.354;2022-12-18T15:07:24;21.77;;;12.47;;
20621;SDS011;10470;42.670;23.354;2022-12-18T15:10:13;23.63;;;12.57;;
20621;SDS011;10470;42.670;23.354;2022-12-18T15:15:51;20.37;;;11.00;;
20621;SDS011;10470;42.670;23.354;2022-12-18T15:18:40;23.87;;;11.03;;
20621;SDS011;10470;42.670;23.354;2022-12-18T15:21:27;20.53;;;11.13;;
20621;SDS011;10470;42.670;23.354;2022-12-18T15:24:17;20.30;;;11.33;;
20621;SDS011;10470;42.670;23.354;2022-12-18T15:36:10;21.40;;;11.57;;
20621;SDS011;10470;42.670;23.354;2022-12-18T15:39:00;20.30;;;10.63;;
20621;SDS011;10470;42.670;23.354;2022-12-18T15:41:45;18.97;;;10.13;;
20621;SDS011;10470;42.670;23.354;2022-12-18T15:44:50;18.00;;;10.20;;
20621;SDS011;10470;42.670;23.354;2022-12-18T15:47:26;20.30;;;11.00;;
20621;SDS011;10470;42.670;23.354;2022-12-18T15:50:11;26.53;;;11.33;;
20621;SDS011;10470;42.670;23.354;2022-12-18T15:52:56;18.77;;;9.83;;
20621;SDS011;10470;42.670;23.354;2022-12-18T15:55:42;21.47;;;11.03;;
20621;SDS011;10470;42.670;23.354;2022-12-18T15:58:46;22.87;;;11.07;;
20621;SDS011;10470;42.670;23.354;2022-12-18T16:01:31;22.73;;;12.50;;
20621;SDS011;10470;42.670;23.354;2022-12-18T16:04:18;20.97;;;10.10;;
20621;SDS011;10470;42.670;23.354;2022-12-18T16:07:08;19.63;;;10.90;;
20621;SDS011;10470;42.670;23.354;2022-12-18T16:09:54;22.77;;;11.57;;
20621;SDS011;10470;42.670;23.354;2022-12-18T16:12:40;22.97;;;12.23;;
20621;SDS011;10470;42.670;23.354;2022-12-18T16:15:19;19.63;;;10.97;;
20621;SDS011;10470;42.670;23.354;2022-12-18T16:18:04;27.03;;;13.43;;
20621;SDS011;10470;42.670;23.354;2022-12-18T16:20:50;25.37;;;14.10;;
20621;SDS011;10470;42.670;23.354;2022-12-18T16:23:35;26.07;;;12.50;;
20621;SDS011;10470;42.670;23.354;2022-12-18T16:26:21;23.90;;;11.93;;
20621;SDS011;10470;42.670;23.354;2022-12-18T16:29:06;24.53;;;12.57;;
20621;SDS011;10470;42.670;23.354;2022-12-18T16:31:52;22.47;;;11.90;;
20621;SDS011;10470;42.670;23.354;2022-12-18T16:34:38;24.33;;;12.20;;
20621;SDS011;10470;42.670;23.354;2022-12-18T16:37:23;24.60;;;12.43;;
20621;SDS011;10470;42.670;23.354;2022-12-18T16:40:10;27.17;;;13.37;;
20621;SDS011;10470;42.670;23.354;2022-12-18T16:42:57;21.27;;;11.50;;
20621;SDS011;10470;42.670;23.354;2022-12-18T16:45:43;25.43;;;13.27;;
20621;SDS011;10470;42.670;23.354;2022-12-18T16:48:28;24.37;;;12.33;;
20621;SDS011;10470;42.670;23.354;2022-12-18T16:51:14;22.80;;;11.93;;
20621;SDS011;10470;42.670;23.354;2022-12-18T16:53:59;24.43;;;13.13;;
20621;SDS011;10470;42.670;23.354;2022-12-18T16:56:45;26.83;;;13.43;;
20621;SDS011;10470;42.670;23.354;2022-12-18T16:59:33;21.23;;;11.07;;
20621;SDS011;10470;42.670;23.354;2022-12-18T17:02:20;21.70;;;11.57;;
20621;SDS011;10470;42.670;23.354;2022-12-18T17:05:10;24.83;;;12.10;;
20621;SDS011;10470;42.670;23.354;2022-12-18T17:07:56;22.43;;;11.80;;
20621;SDS011;10470;42.670;23.354;2022-12-18T17:10:41;23.10;;;12.40;;
20621;SDS011;10470;42.670;23.354;2022-12-18T17:13:29;22.63;;;11.97;;
20621;SDS011;10470;42.670;23.354;2022-12-18T17:16:18;24.70;;;13.07;;
20621;SDS011;10470;42.670;23.354;2022-12-18T17:19:04;19.13;;;9.37;;
20621;SDS011;10470;42.670;23.354;2022-12-18T17:21:50;23.00;;;12.63;;
20621;SDS011;10470;42.670;23.354;2022-12-18T17:24:36;25.43;;;12.47;;
20621;SDS011;10470;42.670;23.354;2022-12-18T17:27:21;23.60;;;12.73;;
20621;SDS011;10470;42.670;23.354;2022-12-18T17:30:07;25.47;;;12.63;;
20621;SDS011;10470;42.670;23.354;2022-12-18T17:32:54;25.60;;;12.70;;
20621;SDS011;10470;42.670;23.354;2022-12-18T17:35:40;26.00;;;12.97;;
20621;SDS011;10470;42.670;23.354;2022-12-18T17:38:25;24.13;;;12.27;;
20621;SDS011;10470;42.670;23.354;2022-12-18T17:41:11;21.23;;;10.23;;
20621;SDS011;10470;42.670;23.354;2022-12-18T17:43:42;23.30;;;11.73;;
20621;SDS011;10470;42.670;23.354;2022-12-18T17:46:32;21.80;;;11.87;;
20621;SDS011;10470;42.670;23.354;2022-12-18T17:49:21;23.23;;;12.33;;
20621;SDS011;10470;42.670;23.354;2022-12-18T17:52:08;26.83;;;12.57;;
20621;SDS011;10470;42.670;23.354;2022-12-18T17:54:53;23.87;;;11.97;;
20621;SDS011;10470;42.670;23.354;2022-12-18T17:57:39;24.40;;;12.13;;
20621;SDS011;10470;42.670;23.354;2022-12-18T18:00:26;21.10;;;10.50;;
20621;SDS011;10470;42.670;23.354;2022-12-18T18:03:11;26.73;;;13.17;;
20621;SDS011;10470;42.670;23.354;2022-12-18T18:05:44;28.97;;;13.77;;
20621;SDS011;10470;42.670;23.354;2022-12-18T18:08:19;23.07;;;11.87;;
20621;SDS011;10470;42.670;23.354;2022-12-18T18:11:05;26.57;;;13.27;;
20621;SDS011;10470;42.670;23.354;2022-12-18T18:14:01;28.60;;;14.13;;
20621;SDS011;10470;42.670;23.354;2022-12-18T18:16:49;27.10;;;12.93;;
20621;SDS011;10470;42.670;23.354;2022-12-18T18:19:36;25.43;;;12.73;;
20621;SDS011;10470;42.670;23.354;2022-12-18T18:22:21;25.70;;;12.20;;
20621;SDS011;10470;42.670;23.354;2022-12-18T18:25:07;25.50;;;12.03;;
20621;SDS011;10470;42.670;23.354;2022-12-18T18:27:46;25.40;;;13.63;;
20621;SDS011;10470;42.670;23.354;2022-12-18T18:30:32;23.17;;;12.23;;
20621;SDS011;10470;42.670;23.354;2022-12-18T18:33:17;24.17;;;12.93;;
20621;SDS011;10470;42.670;23.354;2022-12-18T18:36:03;25.73;;;12.63;;
20621;SDS011;10470;42.670;23.354;2022-12-18T18:38:49;26.10;;;12.87;;
20621;SDS011;10470;42.670;23.354;2022-12-18T18:41:35;27.60;;;14.30;;